sensor_id;sensor_type;location;lat;lon;timestamp;P1;durP1;ratioP1;P2;durP2;ratioP2
53052;SDS011;38934;52.690;6.184;2024-01-16T00:01:44;8.88;;;1.85;;
53052;SDS011;38934;52.690;6.184;2024-01-16T00:04:10;10.02;;;2.67;;
53052;SDS011;38934;52.690;6.184;2024-01-16T00:06:39;13.05;;;2.83;;
53052;SDS011;38934;52.690;6.184;2024-01-16T00:09:06;11.32;;;3.88;;
53052;SDS011;38934;52.690;6.184;2024-01-16T00:11:32;11.40;;;3.17;;
53052;SDS011;38934;52.690;6.184;2024-01-16T00:13:57;6.10;;;1.80;;
53052;SDS011;38934;52.690;6.184;2024-01-16T00:16:23;6.43;;;1.80;;
53052;SDS011;38934;52.690;6.184;2024-01-16T00:18:49;8.05;;;2.00;;
53052;SDS011;38934;52.690;6.184;2024-01-16T00:21:14;3.97;;;1.70;;
53052;SDS011;38934;52.690;6.184;2024-01-16T00:23:40;4.68;;;1.60;;
53052;SDS011;38934;52.690;6.184;2024-01-16T00:26:06;6.25;;;1.70;;
53052;SDS011;38934;52.690;6.184;2024-01-16T00:28:31;2.60;;;1.25;;
53052;SDS011;38934;52.690;6.184;2024-01-16T00:30:57;5.53;;;1.50;;
53052;SDS011;38934;52.690;6.184;2024-01-16T00:33:23;4.55;;;1.33;;
53052;SDS011;38934;52.690;6.184;2024-01-16T00:35:49;4.47;;;1.65;;
53052;SDS011;38934;52.690;6.184;2024-01-16T00:38:15;3.78;;;1.60;;
53052;SDS011;38934;52.690;6.184;2024-01-16T00:40:40;5.22;;;1.58;;
53052;SDS011;38934;52.690;6.184;2024-01-16T00:43:06;4.55;;;1.58;;
53052;SDS011;38934;52.690;6.184;2024-01-16T00:45:32;5.25;;;1.27;;
53052;SDS011;38934;52.690;6.184;2024-01-16T00:47:57;3.13;;;1.60;;
53052;SDS011;38934;52.690;6.184;2024-01-16T00:50:23;5.05;;;1.92;;
53052;SDS011;38934;52.690;6.184;2024-01-16T00:52:49;3.70;;;1.50;;
53052;SDS011;38934;52.690;6.184;2024-01-16T00:55:15;7.30;;;1.63;;
53052;SDS011;38934;52.690;6.184;2024-01-16T00:57:41;10.50;;;3.13;;
53052;SDS011;38934;52.690;6.184;2024-01-16T01:00:06;3.67;;;1.80;;
53052;SDS011;38934;52.690;6.184;2024-01-16T01:02:34;4.32;;;1.83;;
53052;SDS011;38934;52.690;6.184;2024-01-16T01:05:00;3.17;;;1.50;;
53052;SDS011;38934;52.690;6.184;2024-01-16T01:07:26;2.78;;;1.75;;
53052;SDS011;38934;52.690;6.184;2024-01-16T01:09:52;5.00;;;1.70;;
53052;SDS011;38934;52.690;6.184;2024-01-16T01:12:17;6.65;;;1.48;;
53052;SDS011;38934;52.690;6.184;2024-01-16T01:14:43;8.90;;;2.05;;
53052;SDS011;38934;52.690;6.184;2024-01-16T01:17:09;5.63;;;1.30;;
53052;SDS011;38934;52.690;6.184;2024-01-16T01:19:34;7.72;;;1.73;;
53052;SDS011;38934;52.690;6.184;2024-01-16T01:22:00;4.55;;;2.35;;
53052;SDS011;38934;52.690;6.184;2024-01-16T01:24:26;4.60;;;1.88;;
53052;SDS011;38934;52.690;6.184;2024-01-16T01:26:51;5.38;;;1.60;;
53052;SDS011;38934;52.690;6.184;2024-01-16T01:29:17;4.03;;;1.42;;
53052;SDS011;38934;52.690;6.184;2024-01-16T01:31:45;5.97;;;2.45;;
53052;SDS011;38934;52.690;6.184;2024-01-16T01:34:13;6.13;;;2.00;;
53052;SDS011;38934;52.690;6.184;2024-01-16T01:36:38;5.35;;;1.58;;
53052;SDS011;38934;52.690;6.184;2024-01-16T01:39:04;8.85;;;1.70;;
53052;SDS011;38934;52.690;6.184;2024-01-16T01:41:30;5.32;;;2.17;;
53052;SDS011;38934;52.690;6.184;2024-01-16T01:43:56;7.95;;;1.70;;
53052;SDS011;38934;52.690;6.184;2024-01-16T01:46:22;5.03;;;1.90;;
53052;SDS011;38934;52.690;6.184;2024-01-16T01:48:48;5.60;;;1.60;;
53052;SDS011;38934;52.690;6.184;2024-01-16T01:51:16;5.95;;;1.70;;
53052;SDS011;38934;52.690;6.184;2024-01-16T01:53:44;3.53;;;1.70;;
53052;SDS011;38934;52.690;6.184;2024-01-16T01:56:11;4.53;;;1.90;;
53052;SDS011;38934;52.690;6.184;2024-01-16T01:58:40;6.85;;;1.88;;
53052;SDS011;38934;52.690;6.184;2024-01-16T02:01:08;4.50;;;1.80;;
53052;SDS011;38934;52.690;6.184;2024-01-16T02:03:38;7.57;;;2.10;;
53052;SDS011;38934;52.690;6.184;2024-01-16T02:06:06;4.22;;;1.92;;
53052;SDS011;38934;52.690;6.184;2024-01-16T02:08:32;6.97;;;1.60;;
53052;SDS011;38934;52.690;6.184;2024-01-16T02:10:58;7.10;;;1.63;;
53052;SDS011;38934;52.690;6.184;2024-01-16T02:13:24;7.63;;;1.80;;
53052;SDS011;38934;52.690;6.184;2024-01-16T02:15:50;5.35;;;1.80;;
53052;SDS011;38934;52.690;6.184;2024-01-16T02:18:16;8.43;;;1.67;;
53052;SDS011;38934;52.690;6.184;2024-01-16T02:20:43;5.72;;;2.10;;
53052;SDS011;38934;52.690;6.184;2024-01-16T02:23:09;7.53;;;2.35;;
53052;SDS011;38934;52.690;6.184;2024-01-16T02:25:37;7.15;;;1.90;;
53052;SDS011;38934;52.690;6.184;2024-01-16T02:28:03;9.25;;;1.73;;
53052;SDS011;38934;52.690;6.184;2024-01-16T02:30:29;8.02;;;2.00;;
53052;SDS011;38934;52.690;6.184;2024-01-16T02:32:55;11.23;;;1.98;;
53052;SDS011;38934;52.690;6.184;2024-01-16T02:35:21;3.47;;;1.67;;
53052;SDS011;38934;52.690;6.184;2024-01-16T02:37:46;4.93;;;1.65;;
53052;SDS011;38934;52.690;6.184;2024-01-16T02:40:12;8.98;;;1.77;;
53052;SDS011;38934;52.690;6.184;2024-01-16T02:42:38;6.55;;;2.20;;
53052;SDS011;38934;52.690;6.184;2024-01-16T02:45:04;7.57;;;1.67;;
53052;SDS011;38934;52.690;6.184;2024-01-16T02:47:31;5.93;;;1.90;;
53052;SDS011;38934;52.690;6.184;2024-01-16T02:49:56;11.45;;;2.20;;
53052;SDS011;38934;52.690;6.184;2024-01-16T02:52:23;6.00;;;2.47;;
53052;SDS011;38934;52.690;6.184;2024-01-16T02:54:49;12.38;;;2.05;;
53052;SDS011;38934;52.690;6.184;2024-01-16T02:57:16;4.82;;;1.80;;
53052;SDS011;38934;52.690;6.184;2024-01-16T02:59:44;5.18;;;1.70;;
53052;SDS011;38934;52.690;6.184;2024-01-16T03:02:10;7.30;;;1.70;;
53052;SDS011;38934;52.690;6.184;2024-01-16T03:04:36;8.55;;;2.10;;
53052;SDS011;38934;52.690;6.184;2024-01-16T03:07:02;5.22;;;1.75;;
53052;SDS011;38934;52.690;6.184;2024-01-16T03:09:28;8.98;;;2.60;;
53052;SDS011;38934;52.690;6.184;2024-01-16T03:11:54;8.57;;;1.70;;
53052;SDS011;38934;52.690;6.184;2024-01-16T03:14:20;4.70;;;1.60;;
53052;SDS011;38934;52.690;6.184;2024-01-16T03:16:46;9.18;;;2.03;;
53052;SDS011;38934;52.690;6.184;2024-01-16T03:19:11;6.50;;;1.70;;
53052;SDS011;38934;52.690;6.184;2024-01-16T03:21:38;7.50;;;2.20;;
53052;SDS011;38934;52.690;6.184;2024-01-16T03:24:04;7.75;;;1.80;;
53052;SDS011;38934;52.690;6.184;2024-01-16T03:26:31;4.10;;;1.73;;
53052;SDS011;38934;52.690;6.184;2024-01-16T03:28:57;5.25;;;1.80;;
53052;SDS011;38934;52.690;6.184;2024-01-16T03:31:23;4.05;;;1.90;;
53052;SDS011;38934;52.690;6.184;2024-01-16T03:33:49;3.70;;;1.70;;
53052;SDS011;38934;52.690;6.184;2024-01-16T03:36:15;5.75;;;1.70;;
53052;SDS011;38934;52.690;6.184;2024-01-16T03:38:44;4.10;;;1.38;;
53052;SDS011;38934;52.690;6.184;2024-01-16T03:41:13;4.13;;;1.80;;
53052;SDS011;38934;52.690;6.184;2024-01-16T03:43:39;5.68;;;2.00;;
53052;SDS011;38934;52.690;6.184;2024-01-16T03:46:05;7.95;;;1.90;;
53052;SDS011;38934;52.690;6.184;2024-01-16T03:48:31;8.57;;;2.20;;
53052;SDS011;38934;52.690;6.184;2024-01-16T03:50:57;11.93;;;2.40;;
53052;SDS011;38934;52.690;6.184;2024-01-16T03:53:22;6.63;;;2.20;;
53052;SDS011;38934;52.690;6.184;2024-01-16T03:55:48;4.30;;;2.42;;
53052;SDS011;38934;52.690;6.184;2024-01-16T03:58:15;5.22;;;2.15;;
53052;SDS011;38934;52.690;6.184;2024-01-16T04:00:41;7.57;;;2.10;;
53052;SDS011;38934;52.690;6.184;2024-01-16T04:03:06;4.35;;;2.13;;
53052;SDS011;38934;52.690;6.184;2024-01-16T04:05:32;5.55;;;1.85;;
53052;SDS011;38934;52.690;6.184;2024-01-16T04:07:58;10.98;;;2.60;;
53052;SDS011;38934;52.690;6.184;2024-01-16T04:10:24;4.85;;;1.85;;
53052;SDS011;38934;52.690;6.184;2024-01-16T04:12:49;5.32;;;1.92;;
53052;SDS011;38934;52.690;6.184;2024-01-16T04:15:15;5.50;;;2.03;;
53052;SDS011;38934;52.690;6.184;2024-01-16T04:17:41;6.07;;;1.90;;
53052;SDS011;38934;52.690;6.184;2024-01-16T04:20:06;6.65;;;2.25;;
53052;SDS011;38934;52.690;6.184;2024-01-16T04:22:33;4.45;;;1.80;;
53052;SDS011;38934;52.690;6.184;2024-01-16T04:24:58;11.05;;;2.10;;
53052;SDS011;38934;52.690;6.184;2024-01-16T04:27:24;6.90;;;1.80;;
53052;SDS011;38934;52.690;6.184;2024-01-16T04:29:50;8.55;;;2.17;;
53052;SDS011;38934;52.690;6.184;2024-01-16T04:32:16;9.38;;;2.20;;
53052;SDS011;38934;52.690;6.184;2024-01-16T04:34:42;6.30;;;1.80;;
53052;SDS011;38934;52.690;6.184;2024-01-16T04:37:08;7.57;;;2.00;;
53052;SDS011;38934;52.690;6.184;2024-01-16T04:39:34;5.50;;;1.90;;
53052;SDS011;38934;52.690;6.184;2024-01-16T04:41:59;4.28;;;1.90;;
53052;SDS011;38934;52.690;6.184;2024-01-16T04:44:25;5.22;;;1.80;;
53052;SDS011;38934;52.690;6.184;2024-01-16T04:46:50;7.47;;;2.33;;
53052;SDS011;38934;52.690;6.184;2024-01-16T04:49:16;5.13;;;2.22;;
53052;SDS011;38934;52.690;6.184;2024-01-16T04:51:43;6.53;;;2.10;;
53052;SDS011;38934;52.690;6.184;2024-01-16T04:54:08;3.95;;;2.00;;
53052;SDS011;38934;52.690;6.184;2024-01-16T04:56:36;9.52;;;2.42;;
53052;SDS011;38934;52.690;6.184;2024-01-16T04:59:01;4.03;;;1.60;;
53052;SDS011;38934;52.690;6.184;2024-01-16T05:01:29;3.78;;;1.90;;
53052;SDS011;38934;52.690;6.184;2024-01-16T05:03:55;4.32;;;1.85;;
53052;SDS011;38934;52.690;6.184;2024-01-16T05:06:20;5.68;;;1.92;;
53052;SDS011;38934;52.690;6.184;2024-01-16T05:08:46;10.18;;;2.05;;
53052;SDS011;38934;52.690;6.184;2024-01-16T05:11:12;3.83;;;2.05;;
53052;SDS011;38934;52.690;6.184;2024-01-16T05:13:38;3.20;;;1.73;;
53052;SDS011;38934;52.690;6.184;2024-01-16T05:16:04;4.25;;;2.40;;
53052;SDS011;38934;52.690;6.184;2024-01-16T05:18:30;5.13;;;2.35;;
53052;SDS011;38934;52.690;6.184;2024-01-16T05:20:57;10.30;;;1.98;;
53052;SDS011;38934;52.690;6.184;2024-01-16T05:23:23;3.35;;;1.88;;
53052;SDS011;38934;52.690;6.184;2024-01-16T05:25:49;2.50;;;1.77;;
53052;SDS011;38934;52.690;6.184;2024-01-16T05:28:15;5.82;;;2.20;;
53052;SDS011;38934;52.690;6.184;2024-01-16T05:30:40;9.68;;;2.65;;
53052;SDS011;38934;52.690;6.184;2024-01-16T05:33:06;4.30;;;1.63;;
53052;SDS011;38934;52.690;6.184;2024-01-16T05:35:32;4.82;;;1.80;;
53052;SDS011;38934;52.690;6.184;2024-01-16T05:37:58;7.57;;;2.42;;
53052;SDS011;38934;52.690;6.184;2024-01-16T05:40:24;5.85;;;2.22;;
53052;SDS011;38934;52.690;6.184;2024-01-16T05:42:50;9.25;;;2.25;;
53052;SDS011;38934;52.690;6.184;2024-01-16T05:45:16;8.10;;;2.53;;
53052;SDS011;38934;52.690;6.184;2024-01-16T05:47:42;7.47;;;2.70;;
53052;SDS011;38934;52.690;6.184;2024-01-16T05:50:08;7.38;;;2.70;;
53052;SDS011;38934;52.690;6.184;2024-01-16T05:52:34;3.95;;;2.40;;
53052;SDS011;38934;52.690;6.184;2024-01-16T05:55:00;9.43;;;2.65;;
53052;SDS011;38934;52.690;6.184;2024-01-16T05:57:28;7.22;;;2.60;;
53052;SDS011;38934;52.690;6.184;2024-01-16T05:59:54;7.82;;;2.70;;
53052;SDS011;38934;52.690;6.184;2024-01-16T06:02:20;7.40;;;2.70;;
53052;SDS011;38934;52.690;6.184;2024-01-16T06:04:46;7.03;;;3.15;;
53052;SDS011;38934;52.690;6.184;2024-01-16T06:07:12;9.68;;;3.05;;
53052;SDS011;38934;52.690;6.184;2024-01-16T06:09:40;6.65;;;3.10;;
53052;SDS011;38934;52.690;6.184;2024-01-16T06:12:07;9.32;;;3.30;;
53052;SDS011;38934;52.690;6.184;2024-01-16T06:14:33;7.57;;;3.63;;
53052;SDS011;38934;52.690;6.184;2024-01-16T06:16:59;9.15;;;3.25;;
53052;SDS011;38934;52.690;6.184;2024-01-16T06:19:25;11.55;;;3.42;;
53052;SDS011;38934;52.690;6.184;2024-01-16T06:21:51;5.63;;;3.33;;
53052;SDS011;38934;52.690;6.184;2024-01-16T06:24:17;6.75;;;3.30;;
53052;SDS011;38934;52.690;6.184;2024-01-16T06:26:42;11.18;;;3.53;;
53052;SDS011;38934;52.690;6.184;2024-01-16T06:29:08;8.77;;;2.95;;
53052;SDS011;38934;52.690;6.184;2024-01-16T06:31:34;6.18;;;3.13;;
53052;SDS011;38934;52.690;6.184;2024-01-16T06:34:00;8.10;;;3.17;;
53052;SDS011;38934;52.690;6.184;2024-01-16T06:36:26;5.88;;;3.08;;
53052;SDS011;38934;52.690;6.184;2024-01-16T06:38:52;8.43;;;3.63;;
53052;SDS011;38934;52.690;6.184;2024-01-16T06:41:17;7.32;;;3.65;;
53052;SDS011;38934;52.690;6.184;2024-01-16T06:43:43;8.82;;;3.72;;
53052;SDS011;38934;52.690;6.184;2024-01-16T06:46:09;8.27;;;3.75;;
53052;SDS011;38934;52.690;6.184;2024-01-16T06:48:35;10.13;;;3.85;;
53052;SDS011;38934;52.690;6.184;2024-01-16T06:51:04;7.93;;;4.00;;
53052;SDS011;38934;52.690;6.184;2024-01-16T06:53:30;7.05;;;4.05;;
53052;SDS011;38934;52.690;6.184;2024-01-16T06:55:57;13.60;;;4.57;;
53052;SDS011;38934;52.690;6.184;2024-01-16T06:58:22;8.35;;;4.22;;
53052;SDS011;38934;52.690;6.184;2024-01-16T07:00:48;7.55;;;4.25;;
53052;SDS011;38934;52.690;6.184;2024-01-16T07:03:14;12.80;;;4.75;;
53052;SDS011;38934;52.690;6.184;2024-01-16T07:05:40;11.00;;;4.03;;
53052;SDS011;38934;52.690;6.184;2024-01-16T07:08:09;9.57;;;4.20;;
53052;SDS011;38934;52.690;6.184;2024-01-16T07:10:35;9.25;;;4.60;;
53052;SDS011;38934;52.690;6.184;2024-01-16T07:13:01;11.55;;;4.60;;
53052;SDS011;38934;52.690;6.184;2024-01-16T07:15:27;8.40;;;4.45;;
53052;SDS011;38934;52.690;6.184;2024-01-16T07:17:53;7.07;;;4.28;;
53052;SDS011;38934;52.690;6.184;2024-01-16T07:20:19;7.82;;;4.30;;
53052;SDS011;38934;52.690;6.184;2024-01-16T07:22:45;10.30;;;5.13;;
53052;SDS011;38934;52.690;6.184;2024-01-16T07:25:11;9.02;;;4.07;;
53052;SDS011;38934;52.690;6.184;2024-01-16T07:27:37;9.10;;;4.35;;
53052;SDS011;38934;52.690;6.184;2024-01-16T07:30:06;10.85;;;4.88;;
53052;SDS011;38934;52.690;6.184;2024-01-16T07:32:32;8.30;;;4.00;;
53052;SDS011;38934;52.690;6.184;2024-01-16T07:34:58;10.23;;;4.30;;
53052;SDS011;38934;52.690;6.184;2024-01-16T07:37:24;9.93;;;4.40;;
53052;SDS011;38934;52.690;6.184;2024-01-16T07:39:49;9.13;;;4.65;;
53052;SDS011;38934;52.690;6.184;2024-01-16T07:42:15;12.32;;;5.43;;
53052;SDS011;38934;52.690;6.184;2024-01-16T07:44:41;11.25;;;4.25;;
53052;SDS011;38934;52.690;6.184;2024-01-16T07:47:06;8.82;;;4.45;;
53052;SDS011;38934;52.690;6.184;2024-01-16T07:49:32;11.93;;;5.50;;
53052;SDS011;38934;52.690;6.184;2024-01-16T07:51:59;10.88;;;5.00;;
53052;SDS011;38934;52.690;6.184;2024-01-16T07:54:24;9.32;;;5.30;;
53052;SDS011;38934;52.690;6.184;2024-01-16T07:56:51;11.63;;;5.25;;
53052;SDS011;38934;52.690;6.184;2024-01-16T07:59:17;10.90;;;5.05;;
53052;SDS011;38934;52.690;6.184;2024-01-16T08:01:42;10.00;;;5.53;;
53052;SDS011;38934;52.690;6.184;2024-01-16T08:04:08;12.77;;;5.53;;
53052;SDS011;38934;52.690;6.184;2024-01-16T08:06:34;12.88;;;6.28;;
53052;SDS011;38934;52.690;6.184;2024-01-16T08:09:00;13.32;;;5.70;;
53052;SDS011;38934;52.690;6.184;2024-01-16T08:11:26;10.15;;;5.82;;
53052;SDS011;38934;52.690;6.184;2024-01-16T08:13:51;12.23;;;6.10;;
53052;SDS011;38934;52.690;6.184;2024-01-16T08:16:17;12.73;;;5.82;;
53052;SDS011;38934;52.690;6.184;2024-01-16T08:18:42;12.02;;;6.15;;
53052;SDS011;38934;52.690;6.184;2024-01-16T08:21:08;16.48;;;7.07;;
53052;SDS011;38934;52.690;6.184;2024-01-16T08:23:34;17.52;;;7.20;;
53052;SDS011;38934;52.690;6.184;2024-01-16T08:26:00;16.15;;;7.15;;
53052;SDS011;38934;52.690;6.184;2024-01-16T08:28:26;15.20;;;6.93;;
53052;SDS011;38934;52.690;6.184;2024-01-16T08:30:52;12.00;;;6.03;;
53052;SDS011;38934;52.690;6.184;2024-01-16T08:33:17;12.48;;;6.65;;
53052;SDS011;38934;52.690;6.184;2024-01-16T08:35:43;12.85;;;6.45;;
53052;SDS011;38934;52.690;6.184;2024-01-16T08:38:09;12.85;;;5.97;;
53052;SDS011;38934;52.690;6.184;2024-01-16T08:40:35;10.13;;;5.60;;
53052;SDS011;38934;52.690;6.184;2024-01-16T08:43:01;11.80;;;6.18;;
53052;SDS011;38934;52.690;6.184;2024-01-16T08:45:26;12.38;;;6.30;;
53052;SDS011;38934;52.690;6.184;2024-01-16T08:47:52;10.90;;;6.05;;
53052;SDS011;38934;52.690;6.184;2024-01-16T08:50:18;12.23;;;5.70;;
53052;SDS011;38934;52.690;6.184;2024-01-16T08:52:46;9.52;;;6.10;;
53052;SDS011;38934;52.690;6.184;2024-01-16T08:55:12;14.43;;;6.07;;
53052;SDS011;38934;52.690;6.184;2024-01-16T08:57:37;12.07;;;5.95;;
53052;SDS011;38934;52.690;6.184;2024-01-16T09:00:04;10.63;;;5.28;;
53052;SDS011;38934;52.690;6.184;2024-01-16T09:02:30;10.50;;;5.63;;
53052;SDS011;38934;52.690;6.184;2024-01-16T09:04:56;12.55;;;5.47;;
53052;SDS011;38934;52.690;6.184;2024-01-16T09:07:24;8.52;;;5.38;;
53052;SDS011;38934;52.690;6.184;2024-01-16T09:09:50;9.77;;;5.40;;
53052;SDS011;38934;52.690;6.184;2024-01-16T09:12:16;7.82;;;5.20;;
53052;SDS011;38934;52.690;6.184;2024-01-16T09:14:41;11.82;;;6.20;;
53052;SDS011;38934;52.690;6.184;2024-01-16T09:17:07;10.10;;;5.45;;
53052;SDS011;38934;52.690;6.184;2024-01-16T09:19:33;11.55;;;5.28;;
53052;SDS011;38934;52.690;6.184;2024-01-16T09:21:59;8.13;;;5.28;;
53052;SDS011;38934;52.690;6.184;2024-01-16T09:24:24;11.73;;;4.93;;
53052;SDS011;38934;52.690;6.184;2024-01-16T09:26:50;8.23;;;4.75;;
53052;SDS011;38934;52.690;6.184;2024-01-16T09:29:16;12.15;;;5.32;;
53052;SDS011;38934;52.690;6.184;2024-01-16T09:31:41;6.43;;;4.82;;
53052;SDS011;38934;52.690;6.184;2024-01-16T09:34:08;13.30;;;5.25;;
53052;SDS011;38934;52.690;6.184;2024-01-16T09:36:33;12.07;;;5.65;;
53052;SDS011;38934;52.690;6.184;2024-01-16T09:39:03;8.18;;;4.60;;
53052;SDS011;38934;52.690;6.184;2024-01-16T09:41:33;8.30;;;3.97;;
53052;SDS011;38934;52.690;6.184;2024-01-16T09:43:59;6.85;;;3.78;;
53052;SDS011;38934;52.690;6.184;2024-01-16T09:46:25;6.00;;;3.28;;
53052;SDS011;38934;52.690;6.184;2024-01-16T09:48:54;7.88;;;3.05;;
53052;SDS011;38934;52.690;6.184;2024-01-16T09:51:21;4.72;;;2.80;;
53052;SDS011;38934;52.690;6.184;2024-01-16T09:53:47;7.72;;;2.80;;
53052;SDS011;38934;52.690;6.184;2024-01-16T09:56:14;4.20;;;2.53;;
53052;SDS011;38934;52.690;6.184;2024-01-16T09:58:40;3.70;;;2.33;;
53052;SDS011;38934;52.690;6.184;2024-01-16T10:01:08;5.88;;;2.35;;
53052;SDS011;38934;52.690;6.184;2024-01-16T10:03:34;7.47;;;2.95;;
53052;SDS011;38934;52.690;6.184;2024-01-16T10:06:03;4.78;;;2.30;;
53052;SDS011;38934;52.690;6.184;2024-01-16T10:08:31;8.77;;;2.47;;
53052;SDS011;38934;52.690;6.184;2024-01-16T10:10:57;7.93;;;2.20;;
53052;SDS011;38934;52.690;6.184;2024-01-16T10:13:23;8.70;;;2.30;;
53052;SDS011;38934;52.690;6.184;2024-01-16T10:15:49;4.82;;;2.00;;
53052;SDS011;38934;52.690;6.184;2024-01-16T10:18:24;4.75;;;2.05;;
53052;SDS011;38934;52.690;6.184;2024-01-16T10:20:51;6.45;;;2.30;;
53052;SDS011;38934;52.690;6.184;2024-01-16T10:23:28;8.07;;;2.25;;
53052;SDS011;38934;52.690;6.184;2024-01-16T10:26:13;7.43;;;2.00;;
53052;SDS011;38934;52.690;6.184;2024-01-16T10:28:43;7.22;;;2.00;;
53052;SDS011;38934;52.690;6.184;2024-01-16T10:31:13;4.80;;;2.20;;
53052;SDS011;38934;52.690;6.184;2024-01-16T10:33:41;6.28;;;2.15;;
53052;SDS011;38934;52.690;6.184;2024-01-16T10:36:08;5.38;;;2.03;;
53052;SDS011;38934;52.690;6.184;2024-01-16T10:38:42;6.22;;;2.28;;
53052;SDS011;38934;52.690;6.184;2024-01-16T10:41:12;4.18;;;2.33;;
53052;SDS011;38934;52.690;6.184;2024-01-16T10:43:39;5.68;;;2.40;;
53052;SDS011;38934;52.690;6.184;2024-01-16T10:51:26;7.57;;;2.75;;
53052;SDS011;38934;52.690;6.184;2024-01-16T10:53:55;4.95;;;3.00;;
53052;SDS011;38934;52.690;6.184;2024-01-16T10:56:24;7.93;;;3.20;;
53052;SDS011;38934;52.690;6.184;2024-01-16T10:59:04;8.75;;;3.75;;
53052;SDS011;38934;52.690;6.184;2024-01-16T11:01:37;8.30;;;3.40;;
53052;SDS011;38934;52.690;6.184;2024-01-16T11:04:05;7.00;;;3.78;;
53052;SDS011;38934;52.690;6.184;2024-01-16T11:06:32;8.15;;;4.75;;
53052;SDS011;38934;52.690;6.184;2024-01-16T11:08:59;10.52;;;4.22;;
53052;SDS011;38934;52.690;6.184;2024-01-16T11:11:25;6.40;;;3.85;;
53052;SDS011;38934;52.690;6.184;2024-01-16T11:13:53;6.18;;;3.78;;
53052;SDS011;38934;52.690;6.184;2024-01-16T11:16:20;8.30;;;4.03;;
53052;SDS011;38934;52.690;6.184;2024-01-16T11:18:47;8.35;;;4.03;;
53052;SDS011;38934;52.690;6.184;2024-01-16T11:21:14;10.43;;;3.90;;
53052;SDS011;38934;52.690;6.184;2024-01-16T11:23:41;8.95;;;4.60;;
53052;SDS011;38934;52.690;6.184;2024-01-16T11:28:56;9.27;;;5.50;;
53052;SDS011;38934;52.690;6.184;2024-01-16T11:31:30;13.48;;;7.80;;
53052;SDS011;38934;52.690;6.184;2024-01-16T11:33:57;16.17;;;7.88;;
53052;SDS011;38934;52.690;6.184;2024-01-16T11:39:21;13.93;;;7.53;;
53052;SDS011;38934;52.690;6.184;2024-01-16T11:47:09;14.18;;;8.05;;
53052;SDS011;38934;52.690;6.184;2024-01-16T11:49:41;15.77;;;8.20;;
53052;SDS011;38934;52.690;6.184;2024-01-16T11:52:07;18.73;;;8.75;;
53052;SDS011;38934;52.690;6.184;2024-01-16T11:54:33;15.60;;;7.82;;
53052;SDS011;38934;52.690;6.184;2024-01-16T12:00:00;12.70;;;7.57;;
53052;SDS011;38934;52.690;6.184;2024-01-16T12:05:10;13.85;;;7.75;;
53052;SDS011;38934;52.690;6.184;2024-01-16T12:07:44;15.52;;;8.43;;
53052;SDS011;38934;52.690;6.184;2024-01-16T12:10:15;16.20;;;7.88;;
53052;SDS011;38934;52.690;6.184;2024-01-16T12:12:44;11.35;;;7.00;;
53052;SDS011;38934;52.690;6.184;2024-01-16T12:15:17;13.18;;;6.43;;
53052;SDS011;38934;52.690;6.184;2024-01-16T12:17:54;11.48;;;6.80;;
53052;SDS011;38934;52.690;6.184;2024-01-16T12:20:25;12.50;;;6.60;;
53052;SDS011;38934;52.690;6.184;2024-01-16T12:22:59;10.77;;;6.90;;
53052;SDS011;38934;52.690;6.184;2024-01-16T12:25:30;12.38;;;6.40;;
53052;SDS011;38934;52.690;6.184;2024-01-16T12:28:06;13.52;;;6.15;;
53052;SDS011;38934;52.690;6.184;2024-01-16T12:30:36;14.85;;;6.38;;
53052;SDS011;38934;52.690;6.184;2024-01-16T12:33:09;12.48;;;6.30;;
53052;SDS011;38934;52.690;6.184;2024-01-16T12:35:36;9.05;;;5.40;;
53052;SDS011;38934;52.690;6.184;2024-01-16T12:38:03;10.50;;;5.82;;
53052;SDS011;38934;52.690;6.184;2024-01-16T12:40:36;9.13;;;5.03;;
53052;SDS011;38934;52.690;6.184;2024-01-16T12:43:08;9.60;;;5.45;;
53052;SDS011;38934;52.690;6.184;2024-01-16T12:45:34;12.38;;;5.97;;
53052;SDS011;38934;52.690;6.184;2024-01-16T12:48:01;10.00;;;5.95;;
53052;SDS011;38934;52.690;6.184;2024-01-16T12:50:29;11.90;;;5.40;;
53052;SDS011;38934;52.690;6.184;2024-01-16T12:53:08;10.00;;;4.97;;
53052;SDS011;38934;52.690;6.184;2024-01-16T12:55:36;9.07;;;5.30;;
53052;SDS011;38934;52.690;6.184;2024-01-16T13:00:49;9.15;;;4.18;;
53052;SDS011;38934;52.690;6.184;2024-01-16T13:03:19;8.88;;;4.55;;
53052;SDS011;38934;52.690;6.184;2024-01-16T13:05:56;13.00;;;4.47;;
53052;SDS011;38934;52.690;6.184;2024-01-16T13:08:25;6.03;;;4.07;;
53052;SDS011;38934;52.690;6.184;2024-01-16T13:11:02;7.25;;;3.90;;
53052;SDS011;38934;52.690;6.184;2024-01-16T13:13:29;7.25;;;4.28;;
53052;SDS011;38934;52.690;6.184;2024-01-16T13:15:55;8.27;;;4.30;;
53052;SDS011;38934;52.690;6.184;2024-01-16T13:18:25;10.82;;;4.20;;
53052;SDS011;38934;52.690;6.184;2024-01-16T13:20:53;10.77;;;4.32;;
53052;SDS011;38934;52.690;6.184;2024-01-16T13:23:20;7.95;;;4.22;;
53052;SDS011;38934;52.690;6.184;2024-01-16T13:25:47;8.45;;;4.40;;
53052;SDS011;38934;52.690;6.184;2024-01-16T13:28:14;6.45;;;3.65;;
53052;SDS011;38934;52.690;6.184;2024-01-16T13:30:41;5.40;;;3.85;;
53052;SDS011;38934;52.690;6.184;2024-01-16T13:33:08;15.27;;;4.00;;
53052;SDS011;38934;52.690;6.184;2024-01-16T13:35:34;7.60;;;4.30;;
53052;SDS011;38934;52.690;6.184;2024-01-16T13:38:01;6.55;;;3.60;;
53052;SDS011;38934;52.690;6.184;2024-01-16T13:40:29;6.55;;;3.15;;
53052;SDS011;38934;52.690;6.184;2024-01-16T13:42:55;6.50;;;3.20;;
53052;SDS011;38934;52.690;6.184;2024-01-16T13:45:21;9.52;;;3.20;;
53052;SDS011;38934;52.690;6.184;2024-01-16T13:47:48;10.68;;;3.30;;
53052;SDS011;38934;52.690;6.184;2024-01-16T13:50:14;7.13;;;3.10;;
53052;SDS011;38934;52.690;6.184;2024-01-16T13:52:39;5.13;;;2.97;;
53052;SDS011;38934;52.690;6.184;2024-01-16T13:55:06;7.70;;;3.08;;
53052;SDS011;38934;52.690;6.184;2024-01-16T13:57:32;7.38;;;3.42;;
53052;SDS011;38934;52.690;6.184;2024-01-16T14:00:05;8.93;;;3.47;;
53052;SDS011;38934;52.690;6.184;2024-01-16T14:02:32;7.50;;;3.15;;
53052;SDS011;38934;52.690;6.184;2024-01-16T14:05:02;9.05;;;3.25;;
53052;SDS011;38934;52.690;6.184;2024-01-16T14:07:30;6.13;;;3.20;;
53052;SDS011;38934;52.690;6.184;2024-01-16T14:09:56;5.82;;;2.80;;
53052;SDS011;38934;52.690;6.184;2024-01-16T14:12:23;9.13;;;2.78;;
53052;SDS011;38934;52.690;6.184;2024-01-16T14:14:49;5.38;;;2.90;;
53052;SDS011;38934;52.690;6.184;2024-01-16T14:17:16;8.20;;;3.00;;
53052;SDS011;38934;52.690;6.184;2024-01-16T14:19:42;10.15;;;3.13;;
53052;SDS011;38934;52.690;6.184;2024-01-16T14:22:08;4.78;;;2.80;;
53052;SDS011;38934;52.690;6.184;2024-01-16T14:24:33;5.63;;;2.75;;
53052;SDS011;38934;52.690;6.184;2024-01-16T14:26:59;7.18;;;3.30;;
53052;SDS011;38934;52.690;6.184;2024-01-16T14:29:25;6.88;;;2.97;;
53052;SDS011;38934;52.690;6.184;2024-01-16T14:31:53;4.82;;;3.30;;
53052;SDS011;38934;52.690;6.184;2024-01-16T14:34:20;8.43;;;2.97;;
53052;SDS011;38934;52.690;6.184;2024-01-16T14:36:46;4.85;;;2.88;;
53052;SDS011;38934;52.690;6.184;2024-01-16T14:39:12;7.80;;;3.05;;
53052;SDS011;38934;52.690;6.184;2024-01-16T14:41:39;7.15;;;2.70;;
53052;SDS011;38934;52.690;6.184;2024-01-16T14:44:07;7.45;;;3.47;;
53052;SDS011;38934;52.690;6.184;2024-01-16T14:46:34;9.55;;;3.83;;
53052;SDS011;38934;52.690;6.184;2024-01-16T14:49:00;7.68;;;3.00;;
53052;SDS011;38934;52.690;6.184;2024-01-16T14:51:27;4.57;;;3.08;;
53052;SDS011;38934;52.690;6.184;2024-01-16T14:53:53;8.55;;;3.53;;
53052;SDS011;38934;52.690;6.184;2024-01-16T14:56:18;5.53;;;3.00;;
53052;SDS011;38934;52.690;6.184;2024-01-16T14:58:45;6.80;;;3.05;;
53052;SDS011;38934;52.690;6.184;2024-01-16T15:01:12;4.75;;;3.08;;
53052;SDS011;38934;52.690;6.184;2024-01-16T15:03:38;8.25;;;2.90;;
53052;SDS011;38934;52.690;6.184;2024-01-16T15:06:04;4.68;;;2.67;;